Hinckley, Ohio
Current Conditions -  °F | °C
As of 5:51 AM on Friday 31 Oct 2014 (Local Time) from KCLE Reporting Station
Overcast Overcast  
Wind Chill: 40°   Ceiling: 4400
Heat Index: 44°   Visibility: 10mi
Dew Point: 35°   Wind: 7mph
Humidity: 71%   Direction: 190°S
Pressure: 29.98"   Gusts: NA
Location:  41.24°N, 81.75°W
Report Text: KCLE 310951Z 19006KT 10SM BKN044 OVC050 07/02 A2998 RMK AO2 SLP155 T00670017 $
Loading
Personal Weather Stations






























Interactive Weather Map
Tropical Storm Tracking
New forecast layout! Learn more

10-Day Weather Forecast

Advertisements
Track Severe Weather on mobile